arxmliv
arxmliv build tool
 
KWARC group
LaTeXML
About
   
 

Detailed info

Back to Homepage

List of missing_macros

No. Date Filename num_warningnum_errornum_xmargok_xmargnum_xmathok_xmathMissing macros
46201 2013-04-09 16:40:39 /1101/1101.0148 8150000[\includegraphics, \ShortTitle, \email, \FullConference, \speaker]; 1 missing file[PoS.cls].
46202 2013-04-09 16:40:28 /1101/1101.0147 070000[\extrasenglish, \dateenglish, \captionsenglish]; 1 missing file[esint.sty].
46203 2013-04-09 16:40:22 /1101/1101.0156 460000[\includegraphics, \ShortTitle, \gtrsim, \email, \FullConference, \speaker]; 1 missing file[PoS.cls].
46204 2013-04-09 16:40:17 /1101/1101.0131 167210000[\cmsSymbolFace, \xspace, \PK, \Pgmm, \Pgmp, \address, \Pp, \Pgpp, \boolean, \text, \RCS, \PB, \PKst, \Pgm, \cmsinstskip, \hypersetup, \includegraphics, \Pgp, \ifthenelse, \cmsAuthorMark, \cmsNoteHeader]; 1 missing file[cms-tdr.cls].
46205 2013-04-09 16:40:03 /1101/1101.0130 820000[{keywords}, \received]; 1 missing file[tMOP2e.cls].
46206 2013-04-09 16:39:45 /1101/1101.0112 9340000[\email, \institute]; 2 missing files[eptcs.cls, breakurl.sty].
46207 2013-04-09 16:39:39 /1101/1101.0070 14380000[\theappendix, {sidewaystable}].
46208 2013-04-09 16:39:28 /1101/1101.0122 120000[\cortext]; 1 missing file[tocloft.sty].
46209 2013-04-09 16:39:22 /1101/1101.0121 120000[\pasa, \na].
46210 2013-04-09 16:39:07 /1101/1101.0126 030000[{theacknowledgments}, \layoutstyle, \classification].
46211 2013-04-09 16:39:06 /1101/1101.0085 1830000[\psfrag]; 2 missing files[printtime.sty, lastpage.sty].
46212 2013-04-09 16:39:03 /1101/1101.0109 180000[\includegraphics, \ShortTitle, \email, \FullConference, \speaker]; 1 missing file[PoS.cls].
46213 2013-04-09 16:38:54 /1101/1101.0117 810000[\slashed].
46214 2013-04-09 16:38:45 /1101/1101.0060 41520000[\doi, \syear, \affiliation, \printaddresses, {bmisc}, \volume, \bid, \address, \bfnm, \dvtx, \bhowpublished, \byear, \hyperref, \corref, \firstpage, \endbibitem, \received, \kwd, \mathbb, \bauthor, \snm, \btitle, \tfrac, \smonth, {aug}, \issue, \bsnm, \r
46215 2013-04-09 16:38:39 /1101/1101.0064 14560000[\theappendix, \endproof, \appendices, {proof}]; 1 missing file[IEEEtran.cls].
46216 2013-04-09 16:38:26 /1101/1101.0091 240000[\subfloat]; 1 missing file[sidecap.sty].
46217 2013-04-09 16:38:19 /1101/1101.0095 12120000[Align, \xymatrix, \ar]; 9 missing files[xycurve.sty, xymatrix.sty, xyline.sty, xyarrow.sty, xycmtip.sty, xycolor.sty, xyrotate.sty, xyframe.sty, xygraph.sty].
46218 2013-04-09 16:38:16 /1101/1101.0090 160000[{theacknowledgments}, \layoutstyle, \tablehead, {ltxfigure}, \classification].
46219 2013-04-09 16:38:06 /1101/1101.0067 43700000[\half, \cV, \cM, {lemma}, {convent}, \N, {theorem}, \eps, \UCP, \sa, \ga, \wt, \cF, \Id, \cT, \CS, \Z, \gL, \CC, {thmenum}, \End, \cP, \lla, \dbar, \bigsetdef, \ii, \gl, \longhookrightarrow, \gb, \spec, \dstr, \<, \Ci, \ind, \sym, \Diff, \noi, \Ell, {dfn
46220 2013-04-09 16:38:03 /1101/1101.0082 1710000[\IEEEoverridecommandlockouts]; 1 missing file[IEEEtran.cls].
46221 2013-04-09 16:37:58 /1101/1101.0073 2720000[\backslashbox]; 1 missing file[slashbox.sty].
46222 2013-04-09 16:37:34 /1101/1101.0076 1100000[\nicefrac, {IEEEkeywords}, \subfloat, \acresetall, \mathbold, \acp]; 5 missing files[mdwtab.sty, IEEEtran.cls, fixmath.sty, mdwmath.sty, microtype.sty].
46223 2013-04-09 16:36:54 /1101/1101.0063 850000[\includegraphics, \onelinecaptionstrue, \onelinecaptionsfalse, \setcaptionmargin, \captionstyle].
46224 2013-04-09 16:36:53 /1101/1101.0053 1620000[\CompileMatrices]; 1 missing file[xy.sty].
46225 2013-04-09 16:36:42 /1101/1101.0009 207100000[\eqref, \affiliation, \allowdisplaybreaks, \text, \keywords]; 1 missing file[jheppub.sty].
46226 2013-04-09 16:36:38 /1101/1101.0047 15100000[\sectiondot, Align, \FL, \ctable, \mathds, \NN, \LL]; 3 missing files[secdot.sty, ctable.sty, cui.cls].
46227 2013-04-09 16:36:20 /1101/1101.0034 3320000[{comment}]; 1 missing file[colordvi.sty].
46228 2013-04-09 16:36:15 /1101/1101.0051 180000[\sodauthor, \rauthor, \address, \sodtitle, \dates, \lat, \PACS, \rtitle].
46229 2013-04-09 16:36:04 /1101/1101.0023 29480000[Align, \xymatrix, \ar]; 1 missing file[xy.sty].
46230 2013-04-09 16:35:56 /1101/1101.0035 21130000[\Abstract, \ArticleName, \ShortArticleName, \FirstPageHeading, \Address, \pdfbookmark, \LastPageEnding, \Classification, \ArticleDates, \Author, \Email, \AuthorNameForHeading, \Keywords].
46231 2013-04-09 16:35:53 /1101/1101.0043 14190000[\includegraphics, \ShortTitle, \email, \FullConference, \pos, \speaker]; 1 missing file[PoS.cls].
46232 2013-04-09 16:35:42 /1101/1101.0004 15950000[\affiliation, \emailAdd, \acknowledgments, \keywords]; 1 missing file[jheppub.sty].
46233 2013-04-09 16:35:39 /1101/1101.0011 1260000[\authorblockN, {keywords}, \centerfigcaptionstrue, \authorblockA, \psfrag, {proof}]; 1 missing file[IEEEtran.cls].
46234 2013-04-09 16:35:20 /1005/1005.5728 3610000[\dashline].
46235 2013-04-09 16:35:14 /1101/1101.0036 26130000[\EdgeL, \VArcR, {VCPicture}, \Final, \LoopN, \Initial, \FinalL, \VCDraw, \ArcL, \State]; 1 missing file[vaucanson-g.sty].
46236 2013-04-09 16:35:07 /1101/1101.0026 2150000[\@thanks, \xyoption, \@topnum, \@maketitle]; 1 missing file[xy.sty].
46237 2013-04-09 16:34:47 /1101/1101.0037 2330000[\apj, \citep, \lesssim, \pasj, \micron, \aap, \procspie, \Accepted, \email, \pasp, \arcdeg, \KeyWords, \Published, \altaffilmark, \Received, \FigureFile, \gtrsim, \altaffiltext, \citet, \SetRunningHead]; 1 missing file[pasj00.cls].
46238 2013-04-09 16:34:26 /1005/1005.5683 14670000[\mathds, \psfrag].
46239 2013-04-09 16:34:24 /1101/1101.0022 030000[\newproof, {prooftheorem}, {proof}].
46240 2013-04-09 16:34:09 /1101/1101.0027 030000[\extrasenglish, \dateenglish, \captionsenglish].
46241 2013-04-09 16:34:03 /1101/1101.0010 050000[\nicefrac, \extrasenglish, \unit, \dateenglish, \captionsenglish].
46242 2013-04-09 16:33:30 /1101/1101.0001 60190000[\apj, \citep, \lesssim, \pasj, \apjl, \nat, \aap, \email, \pasp, \KeyWords, \aj, \altaffilmark, \apjs, \mnras, \gtrsim, \FigureFile, \citet, \altaffiltext, \SetRunningHead]; 1 missing file[pasj00.cls].
46243 2013-04-09 16:33:28 /1101/1101.0006 410000[\theappendix].
46244 2013-04-09 16:33:15 /1005/1005.5736 010000[\htmladdnormallink].
46245 2013-04-09 16:33:07 /1005/1005.5709 6010000[\scalefont].
46246 2013-04-09 16:32:52 /1005/1005.5732 740000[\branch, \leaf, \qobitree]; 1 missing file[qtree.sty].
46247 2013-04-09 16:32:51 /1005/1005.5696 131760000[\doi, \syear, \affiliation, \printaddresses, {bmisc}, \thankstext, \volume, \bid, \address, \thanksref, \bold, \bfnm, \operatorname, \dvtx, \bhowpublished, \byear, \hyperref, \corref, \firstpage, \endbibitem, \received, \kwd, \mathbb, \bparticle, \bautho
46248 2013-04-09 16:32:45 /1005/1005.5729 110000[\ead].
46249 2013-04-09 16:32:32 /1005/1005.5706 63320000[\bra, {fmffile}, \fmf, \fmflabel, \fmfv, {appendices}, \fmfframe, {fmfgraph*}, \fmfleft, \fmfright, \ket].
46250 2013-04-09 16:32:28 /1005/1005.5721 110000[\theappendix].
46251 2013-04-09 16:32:21 /1005/1005.5713 2610000[\theappendix].
46252 2013-04-09 16:31:56 /1005/1005.5704 710000[\subref].
46253 2013-04-09 16:31:36 /1005/1005.5708 1100000[\citeauthoryear, \bm, {keywords}, \citep, \doi, \jvol, \issn, \jyear, \jnum, \issnp]; 1 missing file[gGAF2e.cls].
46254 2013-04-09 16:31:29 /1005/1005.5700 5160000[\affil, \physrep, \citep, \acknowledgments, \keywords, \listfiles]; 1 missing file[emulateapj-rtx4.cls].
46255 2013-04-09 16:30:57 /1005/1005.5701 050000[\caps]; 2 missing files[hypcap.sty, mnoverride.sty].
46256 2013-04-09 16:30:49 /1005/1005.5684 2940000[\ShortTitle, \email, \FullConference, \speaker]; 1 missing file[PoS.cls].
46257 2013-04-09 16:30:34 /1005/1005.5686 050000[{SCfigure*}]; 1 missing file[sidecap.sty].
46258 2013-04-09 16:30:14 /1005/1005.5674 140000[\email, \affaddr, \numberofauthors, \alignauthor]; 1 missing file[sig-alternate-10pt.cls].
46259 2013-04-09 16:30:05 /1005/1005.5678 140000[\theappendix].
46260 2013-04-09 16:29:37 /1005/1005.5597 141880000[Align, {numcases}].
46261 2013-04-09 16:29:36 /1005/1005.5667 340000[\ShortTitle, \email, \FullConference, \speaker]; 1 missing file[PoS.cls].
46262 2013-04-09 16:29:03 /1005/1005.5629 3210000[\geometry].
46263 2013-04-09 16:28:57 /1005/1005.5619 32350000[\Ker, \pr, \Z, \twoheadlongrightarrow, \End, {lem}, {firstfootnote}, {cor}, \xymatrix, Align, \hooklongrightarrow, \cf, \Frac, \Imm, \et, \C, \id, \adj, {thm}, \ar, {defn}, \A, {prop}, \Spec, \Q, \F, \yleftarrow, \yrightarrow, \Aut, {prf}, {rem}, \GL, \S
46264 2013-04-09 16:28:42 /1005/1005.5645 510000[\theappendix].
46265 2013-04-09 16:28:41 /1005/1005.5616 54320000[\Ker, \cf, \pr, \Frac, {exa}, \et, \Z, \id, \hooklongleftarrow, \adj, \ar, {lem}, {firstfootnote}, {thm}, {defn}, {cor}, \A, {prop}, \Spec, \Q, \Hom, \Tr, \xymatrix, \yleftarrow, \yrightarrow, Align, {prf}, {rem}, \hooklongrightarrow, \SelectTips]; 2 mis
46266 2013-04-09 16:28:05 /1005/1005.5620 2320000[\fnref, \fntext].
46267 2013-04-09 16:27:18 /1005/1005.5636 020000[\unichar]; 1 missing file[ucs.sty].
46268 2013-04-09 16:26:46 /1005/1005.5609 2410000[\IAref, \Anotfoot, \Iref, {Authlist}, \Aref, \collaboration, \Instfoot, \AAref, \docnum, \submitted, \IIref]; 1 missing file[cernart.cls].
46269 2013-04-09 16:26:42 /1005/1005.5587 34170000[{rotate}, \Text, \CCirc, \SetScale, \DashLine, \LongArrowArc, \Line, \GlueArc, \SetColor, \LongArrowArcn, \DashCArc, \SetWidth, \LongArrow, \CArc, \CBoxc, \PhotonArc, \Gluon].
46270 2013-04-09 16:26:36 /1005/1005.5588 2940000[\hatch, \hatchpattern, \path]; 1 missing file[eclarith.sty].
46271 2013-04-09 16:26:35 /1005/1005.5604 2250000[Align, \xymatrix, \geometry, \ar]; 1 missing file[xy.sty].
46272 2013-04-09 16:26:33 /1005/1005.5615 030000[\extrasenglish, \dateenglish, \captionsenglish].
46273 2013-04-09 16:26:26 /1005/1005.5612 310000[\ead].
46274 2013-04-09 16:26:16 /1005/1005.5586 410000[\captionlistentry].
46275 2013-04-09 16:26:13 /1005/1005.5602 310000[\DH].
46276 2013-04-09 16:26:01 /1005/1005.5581 4580000[\square, \address, \triangleq, \sep, \cortext, \corref, {frontmatter}, {keyword}]; 1 missing file[ReportTemplate.cls].
46277 2013-04-09 16:25:57 /1005/1005.5539 610000[\setcaptionwidth].
46278 2013-04-09 16:25:45 /1005/1005.5563 2940000[\Text, \Line, \ArrowLine, \DashArrowLine].
46279 2013-04-09 16:25:34 /1005/1005.5591 320000[\authorblockN, \authorblockA]; 1 missing file[IEEEtran.cls].
46280 2013-04-09 16:25:15 /1005/1005.5574 1220000[\address, \name].
46281 2013-04-09 16:25:12 /1005/1005.5568 76160000[{tablenotes}, \midrule, {threeparttable}, \theappendix, \tnote, \cmidrule, \toprule, \bottomrule]; 1 missing file[threeparttable.sty].
46282 2013-04-09 16:24:47 /1005/1005.5552 110000[\theappendix].
46283 2013-04-09 16:24:37 /1005/1005.5576 0170000[\hertz, \kelvin, \celsius, \micrometer, \hour, \centi, \invcm, \meter, \volt, \kilohertz, \newunit, \milliliter, \gram, \unitsuperscript, \eV, \millimeter]; 1 missing file[unitsdef.sty].
46284 2013-04-09 16:24:34 /1005/1005.5571 1310000[\HandRight].
46285 2013-04-09 16:24:21 /1005/1005.5566 1140000[\Review, \Book, \pacs, \inst, \institute, \onefigure, \acknowledgments, \Page, \Publ, \Name, \Editor, \Vol, \Year, \etal]; 1 missing file[epl2.cls].
46286 2013-04-09 16:24:17 /1005/1005.5501 95360000[{keywords}, \theoremstyle, \xymatrix, \address, Align, {classification}, \SelectTips, {proof}, \ar]; 2 missing files[xy.sty, irmaems.cls].
46287 2013-04-09 16:23:51 /1005/1005.5536 101160000[\at, {lemma}, {pptheorem}, \institute, \keywords, \journalname, {definition}, \smartqed, \email, {remark}, \titlerunning, \subclass, {proof}, {acknowledgements}, {proposition}]; 2 missing files[fix-cm.sty, svjour3-pp.cls].
46288 2013-04-09 16:23:43 /1005/1005.5551 130000[\titlerunning, \institute, {acknowledgements}]; 1 missing file[fmj2010.cls].
46289 2013-04-09 16:23:32 /1005/1005.5561 310000[\ead].
46290 2013-04-09 16:23:26 /1005/1005.5541 020000[\ack, \ead].
46291 2013-04-09 16:23:22 /1005/1005.5544 270000[\citeaffixed, \citeyear, \citename, \harvarditem, \citeasnoun, \harvardand].
46292 2013-04-09 16:23:07 /1005/1005.5471 14010000[\mathds].
46293 2013-04-09 16:22:28 /1005/1005.5483 6010000[\marginsize].
46294 2013-04-09 16:21:45 /1005/1005.5511 330000[\e, \fref, \ead].
46295 2013-04-09 16:21:42 /1005/1005.5482 36200000[\ls, \iffontfound, \ifCUPmtlplainloaded, \affiliation, \ns, \acknowledgments, \psfrag, \subfiglabelskip, \checkfont]; 1 missing file[jfm.cls].
46296 2013-04-09 16:21:30 /1005/1005.5504 130000[\topmargin, \textheight, \textwidth].
46297 2013-04-09 16:21:20 /1005/1005.5503 10120000[Align, \xymatrix, \ar]; 9 missing files[xycurve.sty, xymatrix.sty, xyline.sty, xyarrow.sty, xycmtip.sty, xycolor.sty, xyrotate.sty, xyframe.sty, xygraph.sty].
46298 2013-04-09 16:21:01 /1005/1005.5467 9350000[{acknowledgments}, {dedication}, \makecopyright, \frontmatter, \thechapter, \maketitleabstract, \thechapter@ID, \@currentID, \previousdegrees, \degreesubject, \documenttype, \mainmatter, \degree]; 2 missing files[unmeethesis.cls, hypcap.sty].
46299 2013-04-09 16:20:53 /1005/1005.5499 2140000[\vs, \apj, \inst, \aj, \institute, \normalem, \keywords, \apjs, \volnopage, \titlerunning, \chjaa, \no, \authorrunning, {acknowledgements}]; 1 missing file[raa.cls].
46300 2013-04-09 16:20:37 /1005/1005.5492 230000[Align, \kbordermatrix]; 1 missing file[kbordermatrix.sty].
46301 2013-04-09 16:20:28 /1005/1005.5431 4940000[Align, \xymatrix, \ar]; 1 missing file[xy.sty].
46302 2013-04-09 16:20:26 /1005/1005.5484 110000[\ead].
46303 2013-04-09 16:20:15 /1005/1005.5470 880000[\luInto, \lInto, Align, \uInto, \ruInto, \rInto, {diagram}].
46304 2013-04-09 16:20:01 /1005/1005.5242 1196280000[{turn}, \blacken, \path].
46305 2013-04-09 16:19:58 /1005/1005.5441 2010000[\slashed].
46306 2013-04-09 16:19:56 /1005/1005.5457 6030000[\bra, \braket, \ket].
46307 2013-04-09 16:19:42 /1005/1005.5462 1100000[{IEEEkeywords}, \IEEEauthorblockA, \IEEEauthorblockN, \IEEEpeerreviewmaketitle, {IEEEproof}, \balance, \ifCLASSINFOpdf]; 2 missing files[IEEEtran.cls, balance.sty].
46308 2013-04-09 16:19:27 /1005/1005.5468 1710000[\fntext].
46309 2013-04-09 16:19:26 /1005/1005.5443 11150000[\volumenumber, \issuenumber, \newdir, \keywords, \published, \address, \startpage, \email, \dir, \submitted, \revised, \volumeyear, \classification, \received]; 2 missing files[jhrs.cls, xy.sty].
46310 2013-04-09 16:18:56 /1005/1005.5449 310000[\setmarginsrb].
46311 2013-04-09 16:18:47 /1005/1005.5455 010000[\ead].
46312 2013-04-09 16:18:46 /1005/1005.5412 5150000[{IEEEkeywords}, \IEEEauthorblockA, \IEEEauthorblockN, \appendices, {proof}]; 1 missing file[IEEEtran.cls].
46313 2013-04-09 16:18:35 /1005/1005.5446 1440000[\theappendix, \ocis, \address, \email].
46314 2013-04-09 16:18:34 /1005/1005.5445 7010000[\ead].
46315 2013-04-09 16:18:33 /1005/1005.5400 1610000[\psfrag].
46316 2013-04-09 16:18:26 /1005/1005.5420 030000[\extrasenglish, \dateenglish, \captionsenglish].
46317 2013-04-09 16:18:24 /1005/1005.5448 020000[\theappendix, \newcounter].
46318 2013-04-09 16:18:23 /1005/1005.5392 12410000[\subfloat].
46319 2013-04-09 16:18:23 /1005/1005.5415 20270000[{sidewaystable}, \mathds, \midrule, \toprule, \bottomrule]; 1 missing file[ctable.sty].
46320 2013-04-09 16:18:18 /1005/1005.5414 123390000[\printhistory, \doi, \syear, \mathfrak, \volume, {example}, \address, \thanksref, \operatorname, \dvtx, \aid, \hyperref, \corref, \firstpage, \received, \kwd, \mathbb, \snm, \smonth, {aug}, \issue, \runauthor, \varnothing, \revised, {frontmatter}, \upqed
46321 2013-04-09 16:18:10 /1005/1005.5391 13620000[\@esphack, \@bsphack].
46322 2013-04-09 16:17:55 /1005/1005.5428 330000[\kword, \abst, \inst].
46323 2013-04-09 16:17:37 /1005/1005.5399 950000[Align, \xymatrix, \ar]; 2 missing files[colordvi.sty, xy.sty].
46324 2013-04-09 16:17:08 /1005/1005.5395 5440000[\SetKw, {algorithm}, \BranchingEdge, \HGC, \LinesNumbered, \ParameterizedSol, \KwIn, \bottomrule, \SetAlgoRefName, \midrule, \KwOut, \STN, \Else, \SetKwData, \HeuristicSol, \SetKwFunction, \SolveParameterized, \lFor, \nameref, \For, \subfloat, \lElse, \l
46325 2013-04-09 16:17:04 /1005/1005.5402 1140000[\opencite, \surname, \institute, \runningtitle, {opening}, {article}, {acks}, \keywords, Align, \sep, \runningauthor, \inlinecite]; 3 missing files[spr-sola-addons.sty, solaheader.sty, SolarPhysics.cls].
46326 2013-04-09 16:17:01 /1005/1005.5376 13150000[\epubtkKeywords, \tablinesep, \epubtkImage, \url, \epubtkFootnote, \epubtkAuthorData]; 2 missing files[tabls.sty, epubtk.sty].
46327 2013-04-09 16:16:07 /1005/1005.5398 20170000[\includegraphics, \catchline, \toprule, \tbl, \refcite, \keywords]; 1 missing file[ws.sty].
46328 2013-04-09 16:16:00 /1005/1005.5388 2100000[\apj, \apjl, \aap, \nat, \theappendix, \mnras, \apjs, \pasp, \araa]; 1 missing file[aas_macros.sty].
46329 2013-04-09 16:15:58 /1005/1005.5384 060000[\jnltitlelogo, \jid, \dochead, \runauth, \journalname]; 1 missing file[ecrc.sty].
46330 2013-04-09 16:15:57 /1005/1005.5367 9210000[\EndProcedure, {algorithm}, \@title, {algorithmic}, \If, \address, \email, {comment}, \subfloat, \EndIf, \Procedure, \Else, \newgeometry, \reportnumber, \State, \restoregeometry, \subref, \Return]; 3 missing files[datetime.sty, breakurl.sty, DCMreport.cl
46331 2013-04-09 16:15:54 /1005/1005.5366 1170000[\ls, {comment}, \iffontfound, \ifCUPmtlplainloaded, \affiliation, \ns, \acknowledgements, \checkfont]; 1 missing file[jfm.cls].
46332 2013-04-09 16:15:36 /1005/1005.5372 320000[\nicefrac, \unit].
46333 2013-04-09 16:15:29 /1005/1005.5374 2330000[{sidewaystable}].
46334 2013-04-09 16:15:18 /1005/1005.5349 010000[\cortext].
46335 2013-04-09 16:15:16 /1005/1005.5329 48250000[\N, \Z].
46336 2013-04-09 16:15:06 /1005/1005.5340 250000[\For, {algorithm}, \Indp, \Indm].
46337 2013-04-09 16:15:03 /1005/1005.5359 240000[Align, \xymatrix, \ar]; 1 missing file[xy.sty].
46338 2013-04-09 16:15:01 /1005/1005.5352 1450000[\ShortTitle, \email, \FullConference, \acknowledgments, \speaker]; 1 missing file[PoS.cls].
46339 2013-04-09 16:14:41 /1005/1005.5357 1180000[\smaller, \unit, \FullConference, \midrule, \TeV, \ShortTitle, {SCfigure}, \email, \GeV, \toprule, \bottomrule]; 7 missing files[hepparticles.sty, Pos.cls, sidecap.sty, hepnames.sty, hepunits.sty, snapshot.sty, microtype.sty].
46340 2013-04-09 16:14:19 /1005/1005.5348 4340000[{keywords}, \overrideIEEEmargins, \IEEEpeerreviewmaketitle, \IEEEoverridecommandlockouts].
46341 2013-04-09 16:14:07 /1005/1005.5332 172200000[\xspace, \subfigure, \cmsinstskip, \hypersetup, \includegraphics, \address, \cmsAuthorMark, \cmsNoteHeader, \text, \RCS]; 1 missing file[cms-tdr.cls].
46342 2013-04-09 16:14:04 /1005/1005.5346 220000[\Tr, \ead].
46343 2013-04-09 16:13:46 /1005/1005.5319 610000[\longtabL].
46344 2013-04-09 16:13:43 /1005/1005.5316 1310000[\mathds].
46345 2013-04-09 16:13:29 /1005/1005.5335 110000[\citeauthoryear].
46346 2013-04-09 16:13:17 /1005/1005.5320 350000[\email, \pacs, \inst, \shorttitle, \institute]; 1 missing file[epl2.cls].
46347 2013-04-09 16:12:56 /1005/1005.5318 3150000[\address, \epsfbox, \pacs, \epsfxsize, \keywords].
46348 2013-04-09 16:12:31 /1005/1005.5312 110000[\theappendix].
46349 2013-04-09 16:12:10 /1005/1005.5302 5310000[\mathds].
46350 2013-04-09 16:12:02 /1005/1005.5290 10290000[\Vertex, \Text, \CCirc, \SetWidth, \GlueArc, \Gluon, \geometry, \DashArrowLine]; 1 missing file[colordvi.sty].
46351 2013-04-09 16:11:44 /1005/1005.5288 65180000[{theorem}, \bsep, \pdfbookmark, \LastPageEnding, \Classification, \ArticleDates, \AuthorNameForHeading, {proposition}, \Abstract, \ArticleName, \ShortArticleName, \FirstPageHeading, \tsep, \Address, \Author, {definition}, \Email, \Keywords].
46352 2013-04-09 16:11:43 /1005/1005.5299 1770000[\apjs, \mnras, \apj, \iaucirc, \apjl, \nat, \aap].
46353 2013-04-09 16:11:13 /1005/1005.5266 38100000[Align, \mathds, \xyoption, \tensor, \xymatrix, \oplus, \ar]; 2 missing files[currvita.sty, xy.sty].
46354 2013-04-09 16:10:27 /1005/1005.5254 90140000[\pt, \kzeros, \ra, \TeV, \MeV, \nolinenumbers, \kshort, \pizero, \pT, \GeV, \MET]; 1 missing file[atlasphysics.sty].
46355 2013-04-09 16:10:20 /1005/1005.5284 5120000[\mathds].
46356 2013-04-09 16:09:21 /1005/1005.5270 610000[\institute]; 1 missing file[ecai2010.cls].
46357 2013-04-09 16:09:05 /1005/1005.5262 710000[\tsum].
46358 2013-04-09 16:09:05 /1005/1005.5268 1350000[{IF}, \ELSE, {algorithm}, \institute, \RETURN, \pdfpageheight, \pdfpagewidth, \CALL]; 2 missing files[ecai2010.cls, newalg.sty].
46359 2013-04-09 16:08:53 /1005/1005.5253 710000[\IEEEoverridecommandlockouts]; 1 missing file[IEEEtran.cls].
46360 2013-04-09 16:08:38 /1005/1005.5258 11300000[\Ast, \sidecaption, \abstcol, \pacs, \institute, \includegraphics, \published, \subfloat, \titlerunning, \mail, \authorrunning, {acknowledgement}, \received]; 1 missing file[wiley2sp.cls].
46361 2013-04-09 16:08:37 /1005/1005.5256 150000[\includegraphics, \ShortTitle, \email, \FullConference, \speaker]; 1 missing file[PoS.cls].
46362 2013-04-09 16:08:28 /1005/1005.5208 33210000[{comment}, \ilimits@].
46363 2013-04-09 16:08:17 /1005/1005.5244 1120000[\opencite, \surname, \institute, \runningtitle, {opening}, {article}, {acks}, \keywords, \sep, \runningauthor, \inlinecite]; 2 missing files[spr-sola-addons.sty, SolarPhysics.cls].
46364 2013-04-09 16:07:57 /1005/1005.5250 110000[\theappendix].
46365 2013-04-09 16:07:47 /1005/1005.5223 2910000[\geometry].
46366 2013-04-09 16:07:47 /1005/1005.5251 6180000[\affil, \apj, \timeform, \emissiontype, \pasj, \aap, \LO, \email, \MO, \qjras, \etal, \KeyWords, \draft, \apjs, \mnras, \FigureFile, \ao, \SetRunningHead]; 1 missing file[pasj00.cls].
46367 2013-04-09 16:07:44 /1005/1005.5237 1310000[\nonscript].
46368 2013-04-09 16:07:25 /1005/1005.5236 030000[\extrasenglish, \dateenglish, \captionsenglish].
46369 2013-04-09 16:07:18 /1005/1005.5222 650000[Align, \xyoption, \xymatrix, \ar]; 1 missing file[xy.sty].
46370 2013-04-09 16:06:42 /1005/1005.5211 1420000[\mathds]; 1 missing file[xy.sty].
46371 2013-04-09 16:06:33 /1005/1005.5207 2160000[Align, \xymatrix, \setitemize, \ar]; 2 missing files[soul.sty, xy.sty].
46372 2013-04-09 16:06:25 /1005/1005.5195 17360000[\mciteSetBstMidEndSepPunct, \bra, \EndOfBibitem, \mciteBstWouldAddEndPuncttrue, \mcitedefaultmidpunct, \braket, \mciteErrorOnUnknownfalse, \mcitedefaultseppunct, {mcitethebibliography}, \ket, \mcitedefaultendpunct]; 1 missing file[mciteplus.sty].
46373 2013-04-09 16:06:06 /1005/1005.5198 030000[\tnoteref, \tnotetext]; 1 missing file[ccaption.sty].
46374 2013-04-09 16:05:59 /1005/1005.5201 10940000[\shortcite, \shortciteN, \shortciteNP, \citeNP].
46375 2013-04-09 16:05:29 /1005/1005.5179 14210000[Align, \xymatrix, \ar]; 10 missing files[xycurve.sty, xymatrix.sty, xyline.sty, xyarrow.sty, xycmtip.sty, xycolor.sty, xyrotate.sty, xy.sty, xyframe.sty, xygraph.sty].
46376 2013-04-09 16:05:27 /1005/1005.5190 1010000[\smaller].
46377 2013-04-09 16:05:26 /1005/1005.5184 030000[\ack, \geometry, \ead].
46378 2013-04-09 16:05:16 /1005/1005.5176 210000[\theappendix].
46379 2013-04-09 16:04:40 /1005/1005.5156 2940000[Align, \xymatrix, \ar]; 1 missing file[xy.sty].
46380 2013-04-09 16:04:21 /1005/1005.5163 410000[\pasa].
46381 2013-04-09 16:03:58 /1005/1005.5167 110000[\onltab].
46382 2013-04-09 16:03:43 /1005/1005.5135 12740000[Align, \xymatrix, \ar]; 1 missing file[xy.sty].
46383 2013-04-09 16:03:39 /1005/1005.5136 1440000[\Vertex, \ArrowLine, \Text, \DashLine].
46384 2013-04-09 16:03:16 /1005/1005.5142 2760000[Align, \xymatrix, \rrbracket, \ar, \llbracket]; 1 missing file[xy.sty].
46385 2013-04-09 16:02:54 /1005/1005.5120 1440000[Align, \xymatrix, \ar]; 1 missing file[xy.sty].
46386 2013-04-09 16:02:35 /1005/1005.5091 2070000[\captiontitlefont, \captionnamefont, \neptune, \jupiter, \hangcaption, \earth]; 1 missing file[ccaption.sty].
46387 2013-04-09 16:02:22 /1005/1005.5133 040000[\extrasenglish, \dateenglish, \captionsenglish]; 1 missing file[xy.sty].
46388 2013-04-09 16:01:56 /1005/1005.5105 2720000[\rrbracket, \llbracket].
46389 2013-04-09 16:01:56 /1005/1005.5114 17120000[\conferenceinfo, \mathds, \affaddr, \numberofauthors, \terms, \alignauthor, \keywords, \crdata, \CopyrightYear, \email, \category, \balancecolumns].
46390 2013-04-09 16:01:45 /1005/1005.5087 2140000[\extrasenglish, \geometry, \dateenglish, \captionsenglish].
46391 2013-04-09 16:00:35 /1005/1005.5095 9110000[\theappendix].
46392 2013-04-09 16:00:23 /1005/1005.5083 1710000[\mathinner].
46393 2013-04-09 15:59:38 /1005/1005.5063 11690000[\IEEEpeerreviewmaketitle, \IEEEmembership, \ifCLASSOPTIONcaptionsoff, \appendices, \ifCLASSINFOpdf]; 2 missing files[marginnote.sty, IEEEtran.cls].
46394 2013-04-09 15:59:37 /1005/1005.5077 070000[\subref].
46395 2013-04-09 15:59:34 /1005/1005.5079 2140000[\includegraphics, \kword, \abst, \inst]; 1 missing file[jpsj3.cls].
46396 2013-04-09 15:59:34 /1005/1005.5081 1260000[\affil]; 1 missing file[authblk.sty].
46397 2013-04-09 15:59:23 /1005/1005.5048 71780000[\eqref, \dfrac, {split}, \dotsm, {aligned}, \keywords, \numberwithin, \address, Align, \email, \subjclass, {proof}]; 2 missing files[cyracc.sty, mathincs.cls].
46398 2013-04-09 15:59:14 /1005/1005.5086 140000[\authorinfo, \skiplinehalf, \keywords, \supit]; 1 missing file[spie.cls].
46399 2013-04-09 15:59:12 /1005/1005.5068 010000[\citeauthoryear].
46400 2013-04-09 15:59:11 /1005/1005.5057 7100000[{prop}, \AMSMSC, \ppnum, \cites, {example}, \href, \citelist, {rem}, \hslash]; 1 missing file[myamsart.sty].
<<< >>>

[0] [200] [400] [600] [800] [1000] [1200] [1400] [1600] [1800] [2000] [2200] [2400] [2600] [2800] [3000] [3200] [3400] [3600] [3800] [4000] [4200] [4400] [4600] [4800] [5000] [5200] [5400] [5600] [5800] [6000] [6200] [6400] [6600] [6800] [7000] [7200] [7400] [7600] [7800] [8000] [8200] [8400] [8600] [8800] [9000] [9200] [9400] [9600] [9800] [10000] [10200] [10400] [10600] [10800] [11000] [11200] [11400] [11600] [11800] [12000] [12200] [12400] [12600] [12800] [13000] [13200] [13400] [13600] [13800] [14000] [14200] [14400] [14600] [14800] [15000] [15200] [15400] [15600] [15800] [16000] [16200] [16400] [16600] [16800] [17000] [17200] [17400] [17600] [17800] [18000] [18200] [18400] [18600] [18800] [19000] [19200] [19400] [19600] [19800] [20000] [20200] [20400] [20600] [20800] [21000] [21200] [21400] [21600] [21800] [22000] [22200] [22400] [22600] [22800] [23000] [23200] [23400] [23600] [23800] [24000] [24200] [24400] [24600] [24800] [25000] [25200] [25400] [25600] [25800] [26000] [26200] [26400] [26600] [26800] [27000] [27200] [27400] [27600] [27800] [28000] [28200] [28400] [28600] [28800] [29000] [29200] [29400] [29600] [29800] [30000] [30200] [30400] [30600] [30800] [31000] [31200] [31400] [31600] [31800] [32000] [32200] [32400] [32600] [32800] [33000] [33200] [33400] [33600] [33800] [34000] [34200] [34400] [34600] [34800] [35000] [35200] [35400] [35600] [35800] [36000] [36200] [36400] [36600] [36800] [37000] [37200] [37400] [37600] [37800] [38000] [38200] [38400] [38600] [38800] [39000] [39200] [39400] [39600] [39800] [40000] [40200] [40400] [40600] [40800] [41000] [41200] [41400] [41600] [41800] [42000] [42200] [42400] [42600] [42800] [43000] [43200] [43400] [43600] [43800] [44000] [44200] [44400] [44600] [44800] [45000] [45200] [45400] [45600] [45800] [46000] [46200] [46400] [46600] [46800] [47000] [47200] [47400] [47600] [47800] [48000] [48200] [48400] [48600] [48800] [49000] [49200] [49400] [49600] [49800] [50000] [50200] [50400] [50600] [50800] [51000] [51200] [51400] [51600] [51800] [52000] [52200] [52400] [52600] [52800] [53000] [53200] [53400] [53600] [53800] [54000] [54200] [54400] [54600] [54800] [55000] [55200] [55400] [55600] [55800] [56000] [56200] [56400] [56600] [56800] [57000] [57200] [57400] [57600] [57800] [58000] [58200] [58400] [58600] [58800] [59000] [59200] [59400] [59600] [59800] [60000] [60200] [60400] [60600] [60800] [61000] [61200] [61400] [61600] [61800] [62000] [62200] [62400] [62600] [62800] [63000] [63200] [63400] [63600] [63800] [64000] [64200] [64400] [64600] [64800] [65000] [65200] [65400] [65600] [65800] [66000] [66200] [66400] [66600] [66800] [67000] [67200] [67400] [67600] [67800] [68000] [68200] [68400] [68600] [68800] [69000] [69200] [69400] [69600] [69800] [70000] [70200] [70400] [70600] [70800] [71000] [71200] [71400] [71600] [71800] [72000] [72200] [72400] [72600] [72800] [73000] [73200] [73400] [73600] [73800] [74000] [74200] [74400] [74600] [74800] [75000] [75200] [75400] [75600] [75800] [76000] [76200] [76400] [76600] [76800] [77000] [77200] [77400] [77600] [77800] [78000] [78200] [78400] [78600] [78800] [79000] [79200] [79400] [79600] [79800] [80000] [80200] [80400] [80600] [80800] [81000] [81200] [81400] [81600] [81800] [82000] [82200] [82400] [82600] [82800] [83000] [83200] [83400] [83600] [83800] [84000] [84200] [84400] [84600] [84800] [85000] [85200] [85400] [85600] [85800] [86000] [86200] [86400] [86600] [86800] [87000] [87200] [87400] [87600] [87800] [88000] [88200] [88400] [88600] [88800] [89000] [89200] [89400] [89600] [89800] [90000] [90200] [90400] [90600] [90800] [91000] [91200] [91400] [91600] [91800] [92000] [92200] [92400] [92600] [92800] [93000] [93200] [93400] [93600] [93800] [94000] [94200] [94400] [94600] [94800] [95000] [95200] [95400] [95600] [95800] [96000] [96200] [96400] [96600] [96800] [97000] [97200] [97400] [97600] [97800] [98000] [98200] [98400] [98600] [98800] [99000] [99200] [99400] [99600] [99800] [100000] [100200] [100400] [100600] [100800] [101000] [101200] [101400] [101600] [101800] [102000] [102200] [102400] [102600] [102800] [103000] [103200] [103400] [103600] [103800] [104000] [104200] [104400] [104600] [104800] [105000] [105200] [105400] [105600] [105800] [106000] [106200] [106400] [106600] [106800] [107000] [107200] [107400] [107600] [107800] [108000] [108200] [108400] [108600] [108800] [109000] [109200] [109400] [109600] [109800] [110000] [110200] [110400] [110600] [110800] [111000] [111200] [111400] [111600] [111800] [112000] [112200] [112400] [112600] [112800] [113000] [113200] [113400] [113600] [113800] [114000] [114200] [114400] [114600] [114800] [115000] [115200] [115400] [115600] [115800] [116000] [116200] [116400] [116600] [116800] [117000] [117200] [117400] [117600] [117800] [118000] [118200] [118400] [118600] [118800] [119000] [119200] [119400] [119600] [119800] [120000] [120200] [120400] [120600] [120800] [121000] [121200] [121400] [121600] [121800] [122000] [122200] [122400] [122600] [122800] [123000] [123200] [123400] [123600] [123800] [124000] [124200] [124400] [124600] [124800] [125000] [125200] [125400] [125600] [125800] [126000] [126200] [126400] [126600] [126800] [127000] [127200] [127400] [127600] [127800] [128000] [128200] [128400] [128600] [128800] [129000] [129200] [129400] [129600] [129800] [130000] [130200] [130400] [130600] [130800] [131000] [131200] [131400] [131600] [131800] [132000] [132200] [132400] [132600] [132800] [133000] [133200] [133400] [133600] [133800] [134000] [134200] [134400] [134600] [134800] [135000] [135200] [135400] [135600] [135800] [136000] [136200] [136400] [136600] [136800] [137000] [137200] [137400] [137600] [137800] [138000] [138200] [138400] [138600] [138800] [139000] [139200] [139400] [139600] [139800] [140000] [140200] [140400] [140600] [140800] [141000] [141200] [141400] [141600] [141800] [142000] [142200] [142400] [142600] [142800] [143000] [143200] [143400] [143600] [143800] [144000] [144200] [144400] [144600] [144800] [145000] [145200] [145400] [145600] [145800] [146000] [146200] [146400] [146600] [146800] [147000] [147200] [147400] [147600] [147800] [148000] [148200] [148400] [148600] [148800] [149000] [149200] [149400] [149600] [149800] [150000] [150200] [150400] [150600] [150800] [151000] [151200] [151400] [151600] [151800] [152000] [152200] [152400] [152600] [152800] [153000] [153200] [153400] [153600] [153800] [154000] [154200] [154400] [154600] [154800] [155000] [155200] [155400] [155600] [155800] [156000] [156200] [156400] [156600] [156800] [157000] [157200] [157400] [157600] [157800] [158000] [158200] [158400] [158600] [158800] [159000] [159200] [159400] [159600] [159800] [160000] [160200] [160400] [160600] [160800] [161000] [161200] [161400] [161600] [161800] [162000] [162200] [162400] [162600] [162800] [163000] [163200] [163400] [163600] [163800] [164000] [164200] [164400] [164600]
 
  The service has been written by
Heinrich Stamerjohanns